sensor_id;sensor_type;location;lat;lon;timestamp;P1;durP1;ratioP1;P2;durP2;ratioP2
84814;SDS011;75050;53.190;5.562;2023-12-20T00:01:48;8.82;;;6.35;;
84814;SDS011;75050;53.190;5.562;2023-12-20T00:04:14;11.07;;;6.22;;
84814;SDS011;75050;53.190;5.562;2023-12-20T00:06:39;11.38;;;6.95;;
84814;SDS011;75050;53.190;5.562;2023-12-20T00:09:05;8.90;;;6.53;;
84814;SDS011;75050;53.190;5.562;2023-12-20T00:11:30;7.68;;;6.75;;
84814;SDS011;75050;53.190;5.562;2023-12-20T00:13:55;11.40;;;9.35;;
84814;SDS011;75050;53.190;5.562;2023-12-20T00:16:21;7.30;;;5.75;;
84814;SDS011;75050;53.190;5.562;2023-12-20T00:18:46;10.68;;;5.88;;
84814;SDS011;75050;53.190;5.562;2023-12-20T00:21:11;9.27;;;6.72;;
84814;SDS011;75050;53.190;5.562;2023-12-20T00:23:37;12.88;;;7.97;;
84814;SDS011;75050;53.190;5.562;2023-12-20T00:26:02;13.80;;;7.10;;
84814;SDS011;75050;53.190;5.562;2023-12-20T00:28:28;9.40;;;6.90;;
84814;SDS011;75050;53.190;5.562;2023-12-20T00:30:53;13.10;;;8.02;;
84814;SDS011;75050;53.190;5.562;2023-12-20T00:33:18;11.50;;;7.35;;
84814;SDS011;75050;53.190;5.562;2023-12-20T00:35:44;11.25;;;8.75;;
84814;SDS011;75050;53.190;5.562;2023-12-20T00:38:09;12.13;;;7.50;;
84814;SDS011;75050;53.190;5.562;2023-12-20T00:40:36;13.40;;;5.72;;
84814;SDS011;75050;53.190;5.562;2023-12-20T00:43:01;13.68;;;7.15;;
84814;SDS011;75050;53.190;5.562;2023-12-20T00:45:26;14.55;;;9.90;;
84814;SDS011;75050;53.190;5.562;2023-12-20T00:47:52;10.70;;;7.25;;
84814;SDS011;75050;53.190;5.562;2023-12-20T00:50:17;10.10;;;6.45;;
84814;SDS011;75050;53.190;5.562;2023-12-20T00:52:42;11.10;;;8.07;;
84814;SDS011;75050;53.190;5.562;2023-12-20T00:55:08;14.02;;;6.50;;
84814;SDS011;75050;53.190;5.562;2023-12-20T00:57:33;13.50;;;6.60;;
84814;SDS011;75050;53.190;5.562;2023-12-20T00:59:59;12.25;;;6.90;;
84814;SDS011;75050;53.190;5.562;2023-12-20T01:02:24;13.68;;;9.23;;
84814;SDS011;75050;53.190;5.562;2023-12-20T01:04:50;12.45;;;6.10;;
84814;SDS011;75050;53.190;5.562;2023-12-20T01:07:15;11.00;;;6.75;;
84814;SDS011;75050;53.190;5.562;2023-12-20T01:09:41;13.48;;;8.10;;
84814;SDS011;75050;53.190;5.562;2023-12-20T01:12:06;14.70;;;6.85;;
84814;SDS011;75050;53.190;5.562;2023-12-20T01:14:31;14.88;;;6.65;;
84814;SDS011;75050;53.190;5.562;2023-12-20T01:16:57;9.73;;;6.70;;
84814;SDS011;75050;53.190;5.562;2023-12-20T01:19:22;10.23;;;8.75;;
84814;SDS011;75050;53.190;5.562;2023-12-20T01:21:49;15.63;;;8.00;;
84814;SDS011;75050;53.190;5.562;2023-12-20T01:24:14;13.38;;;6.45;;
84814;SDS011;75050;53.190;5.562;2023-12-20T01:26:39;11.65;;;7.57;;
84814;SDS011;75050;53.190;5.562;2023-12-20T01:29:05;18.83;;;5.50;;
84814;SDS011;75050;53.190;5.562;2023-12-20T01:31:30;12.82;;;8.38;;
84814;SDS011;75050;53.190;5.562;2023-12-20T01:33:55;14.90;;;8.23;;
84814;SDS011;75050;53.190;5.562;2023-12-20T01:36:21;13.23;;;7.72;;
84814;SDS011;75050;53.190;5.562;2023-12-20T01:38:46;17.92;;;6.97;;
84814;SDS011;75050;53.190;5.562;2023-12-20T01:41:11;12.55;;;8.38;;
84814;SDS011;75050;53.190;5.562;2023-12-20T01:43:37;16.17;;;7.13;;
84814;SDS011;75050;53.190;5.562;2023-12-20T01:46:02;12.43;;;8.40;;
84814;SDS011;75050;53.190;5.562;2023-12-20T01:48:28;12.18;;;7.43;;
84814;SDS011;75050;53.190;5.562;2023-12-20T01:50:54;14.88;;;7.53;;
84814;SDS011;75050;53.190;5.562;2023-12-20T01:53:21;17.27;;;8.00;;
84814;SDS011;75050;53.190;5.562;2023-12-20T01:55:50;15.38;;;5.47;;
84814;SDS011;75050;53.190;5.562;2023-12-20T01:58:19;16.92;;;8.75;;
84814;SDS011;75050;53.190;5.562;2023-12-20T02:00:45;13.65;;;7.90;;
84814;SDS011;75050;53.190;5.562;2023-12-20T02:03:10;16.88;;;6.70;;
84814;SDS011;75050;53.190;5.562;2023-12-20T02:05:36;14.85;;;8.82;;
84814;SDS011;75050;53.190;5.562;2023-12-20T02:08:03;13.60;;;8.07;;
84814;SDS011;75050;53.190;5.562;2023-12-20T02:10:28;18.15;;;8.10;;
84814;SDS011;75050;53.190;5.562;2023-12-20T02:12:54;14.35;;;6.28;;
84814;SDS011;75050;53.190;5.562;2023-12-20T02:15:20;18.25;;;7.32;;
84814;SDS011;75050;53.190;5.562;2023-12-20T02:17:46;22.83;;;7.95;;
84814;SDS011;75050;53.190;5.562;2023-12-20T02:20:12;18.88;;;9.57;;
84814;SDS011;75050;53.190;5.562;2023-12-20T02:22:37;11.70;;;6.82;;
84814;SDS011;75050;53.190;5.562;2023-12-20T02:25:03;14.35;;;7.50;;
84814;SDS011;75050;53.190;5.562;2023-12-20T02:27:28;13.73;;;7.00;;
84814;SDS011;75050;53.190;5.562;2023-12-20T02:29:54;17.27;;;6.78;;
84814;SDS011;75050;53.190;5.562;2023-12-20T02:32:20;13.90;;;7.53;;
84814;SDS011;75050;53.190;5.562;2023-12-20T02:34:47;17.00;;;9.43;;
84814;SDS011;75050;53.190;5.562;2023-12-20T02:37:13;20.08;;;8.20;;
84814;SDS011;75050;53.190;5.562;2023-12-20T02:39:39;17.35;;;7.60;;
84814;SDS011;75050;53.190;5.562;2023-12-20T02:42:04;13.00;;;8.55;;
84814;SDS011;75050;53.190;5.562;2023-12-20T02:44:30;15.32;;;6.75;;
84814;SDS011;75050;53.190;5.562;2023-12-20T02:46:55;14.32;;;7.90;;
84814;SDS011;75050;53.190;5.562;2023-12-20T02:49:20;11.65;;;6.57;;
84814;SDS011;75050;53.190;5.562;2023-12-20T02:51:46;14.68;;;6.80;;
84814;SDS011;75050;53.190;5.562;2023-12-20T02:54:12;20.67;;;9.35;;
84814;SDS011;75050;53.190;5.562;2023-12-20T02:56:37;13.10;;;6.10;;
84814;SDS011;75050;53.190;5.562;2023-12-20T02:59:02;13.35;;;8.82;;
84814;SDS011;75050;53.190;5.562;2023-12-20T03:01:31;16.90;;;8.38;;
84814;SDS011;75050;53.190;5.562;2023-12-20T03:03:56;13.35;;;8.18;;
84814;SDS011;75050;53.190;5.562;2023-12-20T03:06:22;15.25;;;9.02;;
84814;SDS011;75050;53.190;5.562;2023-12-20T03:08:47;20.73;;;10.15;;
84814;SDS011;75050;53.190;5.562;2023-12-20T03:11:12;17.60;;;6.35;;
84814;SDS011;75050;53.190;5.562;2023-12-20T03:13:38;14.23;;;8.70;;
84814;SDS011;75050;53.190;5.562;2023-12-20T03:16:10;13.38;;;7.45;;
84814;SDS011;75050;53.190;5.562;2023-12-20T03:18:36;16.92;;;7.25;;
84814;SDS011;75050;53.190;5.562;2023-12-20T03:21:01;20.38;;;9.98;;
84814;SDS011;75050;53.190;5.562;2023-12-20T03:23:27;18.00;;;8.23;;
84814;SDS011;75050;53.190;5.562;2023-12-20T03:25:52;16.67;;;6.93;;
84814;SDS011;75050;53.190;5.562;2023-12-20T03:28:18;22.35;;;7.20;;
84814;SDS011;75050;53.190;5.562;2023-12-20T03:30:44;11.65;;;5.47;;
84814;SDS011;75050;53.190;5.562;2023-12-20T03:33:09;12.73;;;7.15;;
84814;SDS011;75050;53.190;5.562;2023-12-20T03:35:35;12.75;;;6.57;;
84814;SDS011;75050;53.190;5.562;2023-12-20T03:38:00;15.00;;;9.98;;
84814;SDS011;75050;53.190;5.562;2023-12-20T03:40:25;12.00;;;8.18;;
84814;SDS011;75050;53.190;5.562;2023-12-20T03:42:51;14.65;;;6.63;;
84814;SDS011;75050;53.190;5.562;2023-12-20T03:45:16;15.80;;;7.50;;
84814;SDS011;75050;53.190;5.562;2023-12-20T03:47:42;20.02;;;7.82;;
84814;SDS011;75050;53.190;5.562;2023-12-20T03:50:07;18.15;;;7.20;;
84814;SDS011;75050;53.190;5.562;2023-12-20T03:52:33;16.55;;;8.18;;
84814;SDS011;75050;53.190;5.562;2023-12-20T03:54:58;16.65;;;8.43;;
84814;SDS011;75050;53.190;5.562;2023-12-20T03:57:23;17.23;;;8.15;;
84814;SDS011;75050;53.190;5.562;2023-12-20T03:59:49;19.80;;;7.82;;
84814;SDS011;75050;53.190;5.562;2023-12-20T04:02:14;16.75;;;7.70;;
84814;SDS011;75050;53.190;5.562;2023-12-20T04:04:39;16.73;;;9.23;;
84814;SDS011;75050;53.190;5.562;2023-12-20T04:07:05;13.00;;;8.35;;
84814;SDS011;75050;53.190;5.562;2023-12-20T04:09:30;14.57;;;6.47;;
84814;SDS011;75050;53.190;5.562;2023-12-20T04:11:55;12.10;;;6.47;;
84814;SDS011;75050;53.190;5.562;2023-12-20T04:14:21;15.63;;;5.90;;
84814;SDS011;75050;53.190;5.562;2023-12-20T04:16:46;21.60;;;9.25;;
84814;SDS011;75050;53.190;5.562;2023-12-20T04:19:11;14.57;;;6.20;;
84814;SDS011;75050;53.190;5.562;2023-12-20T04:21:37;15.35;;;7.95;;
84814;SDS011;75050;53.190;5.562;2023-12-20T04:24:02;13.65;;;7.00;;
84814;SDS011;75050;53.190;5.562;2023-12-20T04:26:28;17.25;;;8.05;;
84814;SDS011;75050;53.190;5.562;2023-12-20T04:28:54;18.77;;;7.40;;
84814;SDS011;75050;53.190;5.562;2023-12-20T04:31:19;13.52;;;6.40;;
84814;SDS011;75050;53.190;5.562;2023-12-20T04:33:45;13.73;;;7.72;;
84814;SDS011;75050;53.190;5.562;2023-12-20T04:36:10;16.30;;;8.00;;
84814;SDS011;75050;53.190;5.562;2023-12-20T04:38:36;17.38;;;7.53;;
84814;SDS011;75050;53.190;5.562;2023-12-20T04:41:01;16.55;;;7.57;;
84814;SDS011;75050;53.190;5.562;2023-12-20T04:43:26;15.60;;;7.07;;
84814;SDS011;75050;53.190;5.562;2023-12-20T04:45:53;15.98;;;6.35;;
84814;SDS011;75050;53.190;5.562;2023-12-20T04:48:18;15.85;;;7.70;;
84814;SDS011;75050;53.190;5.562;2023-12-20T04:50:44;15.07;;;6.30;;
84814;SDS011;75050;53.190;5.562;2023-12-20T04:53:09;18.40;;;8.13;;
84814;SDS011;75050;53.190;5.562;2023-12-20T04:55:35;22.55;;;9.13;;
84814;SDS011;75050;53.190;5.562;2023-12-20T04:58:00;14.52;;;7.22;;
84814;SDS011;75050;53.190;5.562;2023-12-20T05:00:25;18.20;;;7.30;;
84814;SDS011;75050;53.190;5.562;2023-12-20T05:02:51;17.98;;;7.57;;
84814;SDS011;75050;53.190;5.562;2023-12-20T05:05:17;17.17;;;8.05;;
84814;SDS011;75050;53.190;5.562;2023-12-20T05:07:43;14.60;;;7.55;;
84814;SDS011;75050;53.190;5.562;2023-12-20T05:10:08;14.90;;;8.23;;
84814;SDS011;75050;53.190;5.562;2023-12-20T05:12:34;14.63;;;6.95;;
84814;SDS011;75050;53.190;5.562;2023-12-20T05:15:00;17.92;;;8.38;;
84814;SDS011;75050;53.190;5.562;2023-12-20T05:17:25;17.92;;;7.97;;
84814;SDS011;75050;53.190;5.562;2023-12-20T05:19:51;17.00;;;8.73;;
84814;SDS011;75050;53.190;5.562;2023-12-20T05:22:17;17.23;;;8.85;;
84814;SDS011;75050;53.190;5.562;2023-12-20T05:24:46;13.27;;;6.80;;
84814;SDS011;75050;53.190;5.562;2023-12-20T05:27:12;18.77;;;9.32;;
84814;SDS011;75050;53.190;5.562;2023-12-20T05:29:37;21.33;;;9.48;;
84814;SDS011;75050;53.190;5.562;2023-12-20T05:32:02;19.10;;;6.63;;
84814;SDS011;75050;53.190;5.562;2023-12-20T05:34:29;17.55;;;9.60;;
84814;SDS011;75050;53.190;5.562;2023-12-20T05:36:55;14.32;;;8.10;;
84814;SDS011;75050;53.190;5.562;2023-12-20T05:39:21;18.08;;;7.05;;
84814;SDS011;75050;53.190;5.562;2023-12-20T05:41:46;17.60;;;7.40;;
84814;SDS011;75050;53.190;5.562;2023-12-20T05:44:12;20.27;;;7.38;;
84814;SDS011;75050;53.190;5.562;2023-12-20T05:46:37;18.58;;;8.23;;
84814;SDS011;75050;53.190;5.562;2023-12-20T05:49:02;15.73;;;8.13;;
84814;SDS011;75050;53.190;5.562;2023-12-20T05:51:28;13.45;;;9.23;;
84814;SDS011;75050;53.190;5.562;2023-12-20T05:53:53;15.07;;;7.10;;
84814;SDS011;75050;53.190;5.562;2023-12-20T05:56:19;22.45;;;8.38;;
84814;SDS011;75050;53.190;5.562;2023-12-20T05:58:44;18.88;;;9.93;;
84814;SDS011;75050;53.190;5.562;2023-12-20T06:01:09;20.90;;;7.78;;
84814;SDS011;75050;53.190;5.562;2023-12-20T06:03:35;19.42;;;9.45;;
84814;SDS011;75050;53.190;5.562;2023-12-20T06:06:09;16.17;;;8.23;;
84814;SDS011;75050;53.190;5.562;2023-12-20T06:08:35;20.98;;;7.45;;
84814;SDS011;75050;53.190;5.562;2023-12-20T06:11:01;15.38;;;8.10;;
84814;SDS011;75050;53.190;5.562;2023-12-20T06:13:26;16.45;;;8.98;;
84814;SDS011;75050;53.190;5.562;2023-12-20T06:15:52;18.17;;;8.85;;
84814;SDS011;75050;53.190;5.562;2023-12-20T06:18:19;16.75;;;10.60;;
84814;SDS011;75050;53.190;5.562;2023-12-20T06:20:44;19.30;;;8.63;;
84814;SDS011;75050;53.190;5.562;2023-12-20T06:23:10;12.90;;;6.90;;
84814;SDS011;75050;53.190;5.562;2023-12-20T06:25:35;14.85;;;7.30;;
84814;SDS011;75050;53.190;5.562;2023-12-20T06:28:09;21.35;;;8.02;;
84814;SDS011;75050;53.190;5.562;2023-12-20T06:30:35;14.65;;;7.38;;
84814;SDS011;75050;53.190;5.562;2023-12-20T06:33:01;16.90;;;7.03;;
84814;SDS011;75050;53.190;5.562;2023-12-20T06:35:26;18.23;;;7.30;;
84814;SDS011;75050;53.190;5.562;2023-12-20T06:37:51;16.38;;;8.07;;
84814;SDS011;75050;53.190;5.562;2023-12-20T06:40:17;17.75;;;9.27;;
84814;SDS011;75050;53.190;5.562;2023-12-20T06:42:43;25.40;;;8.23;;
84814;SDS011;75050;53.190;5.562;2023-12-20T06:45:09;28.60;;;10.02;;
84814;SDS011;75050;53.190;5.562;2023-12-20T06:47:35;16.55;;;9.93;;
84814;SDS011;75050;53.190;5.562;2023-12-20T06:50:00;19.20;;;7.32;;
84814;SDS011;75050;53.190;5.562;2023-12-20T06:52:26;20.02;;;8.27;;
84814;SDS011;75050;53.190;5.562;2023-12-20T06:54:51;18.70;;;7.88;;
84814;SDS011;75050;53.190;5.562;2023-12-20T06:57:17;18.90;;;8.13;;
84814;SDS011;75050;53.190;5.562;2023-12-20T06:59:42;22.42;;;9.02;;
84814;SDS011;75050;53.190;5.562;2023-12-20T07:02:10;10.68;;;7.47;;
84814;SDS011;75050;53.190;5.562;2023-12-20T07:04:39;19.52;;;9.10;;
84814;SDS011;75050;53.190;5.562;2023-12-20T07:07:05;16.35;;;7.28;;
84814;SDS011;75050;53.190;5.562;2023-12-20T07:09:30;21.60;;;8.35;;
84814;SDS011;75050;53.190;5.562;2023-12-20T07:11:56;19.33;;;8.02;;
84814;SDS011;75050;53.190;5.562;2023-12-20T07:14:21;18.73;;;8.93;;
84814;SDS011;75050;53.190;5.562;2023-12-20T07:16:47;13.50;;;7.03;;
84814;SDS011;75050;53.190;5.562;2023-12-20T07:19:12;16.60;;;5.97;;
84814;SDS011;75050;53.190;5.562;2023-12-20T07:21:38;19.52;;;8.68;;
84814;SDS011;75050;53.190;5.562;2023-12-20T07:24:03;17.90;;;7.88;;
84814;SDS011;75050;53.190;5.562;2023-12-20T07:26:29;24.45;;;12.13;;
84814;SDS011;75050;53.190;5.562;2023-12-20T07:28:54;24.00;;;7.75;;
84814;SDS011;75050;53.190;5.562;2023-12-20T07:31:19;21.88;;;9.05;;
84814;SDS011;75050;53.190;5.562;2023-12-20T07:33:45;19.70;;;8.40;;
84814;SDS011;75050;53.190;5.562;2023-12-20T07:36:10;18.52;;;8.05;;
84814;SDS011;75050;53.190;5.562;2023-12-20T07:38:37;13.23;;;8.27;;
84814;SDS011;75050;53.190;5.562;2023-12-20T07:41:02;18.20;;;7.45;;
84814;SDS011;75050;53.190;5.562;2023-12-20T07:43:28;20.02;;;10.93;;
84814;SDS011;75050;53.190;5.562;2023-12-20T07:45:53;24.02;;;10.18;;
84814;SDS011;75050;53.190;5.562;2023-12-20T07:48:19;12.38;;;6.70;;
84814;SDS011;75050;53.190;5.562;2023-12-20T07:50:44;20.08;;;9.15;;
84814;SDS011;75050;53.190;5.562;2023-12-20T07:53:09;16.50;;;11.85;;
84814;SDS011;75050;53.190;5.562;2023-12-20T07:55:35;16.70;;;7.75;;
84814;SDS011;75050;53.190;5.562;2023-12-20T07:58:00;17.08;;;10.07;;
84814;SDS011;75050;53.190;5.562;2023-12-20T08:00:26;17.00;;;9.82;;
84814;SDS011;75050;53.190;5.562;2023-12-20T08:02:52;19.90;;;7.80;;
84814;SDS011;75050;53.190;5.562;2023-12-20T08:05:17;17.52;;;6.88;;
84814;SDS011;75050;53.190;5.562;2023-12-20T08:07:43;21.10;;;7.38;;
84814;SDS011;75050;53.190;5.562;2023-12-20T08:10:08;20.67;;;8.63;;
84814;SDS011;75050;53.190;5.562;2023-12-20T08:12:34;18.23;;;9.43;;
84814;SDS011;75050;53.190;5.562;2023-12-20T08:14:59;20.35;;;9.68;;
84814;SDS011;75050;53.190;5.562;2023-12-20T08:17:25;19.40;;;6.78;;
84814;SDS011;75050;53.190;5.562;2023-12-20T08:19:50;22.20;;;8.02;;
84814;SDS011;75050;53.190;5.562;2023-12-20T08:22:16;15.55;;;8.73;;
84814;SDS011;75050;53.190;5.562;2023-12-20T08:24:42;16.05;;;6.47;;
84814;SDS011;75050;53.190;5.562;2023-12-20T08:27:07;17.05;;;7.70;;
84814;SDS011;75050;53.190;5.562;2023-12-20T08:29:34;13.13;;;10.07;;
84814;SDS011;75050;53.190;5.562;2023-12-20T08:31:59;17.38;;;7.88;;
84814;SDS011;75050;53.190;5.562;2023-12-20T08:34:25;16.70;;;7.63;;
84814;SDS011;75050;53.190;5.562;2023-12-20T08:36:50;17.05;;;7.53;;
84814;SDS011;75050;53.190;5.562;2023-12-20T08:39:18;14.45;;;6.85;;
84814;SDS011;75050;53.190;5.562;2023-12-20T08:41:44;20.67;;;8.48;;
84814;SDS011;75050;53.190;5.562;2023-12-20T08:44:09;17.10;;;8.93;;
84814;SDS011;75050;53.190;5.562;2023-12-20T08:46:35;16.30;;;6.40;;
84814;SDS011;75050;53.190;5.562;2023-12-20T08:49:01;12.38;;;7.20;;
84814;SDS011;75050;53.190;5.562;2023-12-20T08:51:26;14.43;;;7.07;;
84814;SDS011;75050;53.190;5.562;2023-12-20T08:53:52;14.73;;;6.15;;
84814;SDS011;75050;53.190;5.562;2023-12-20T08:56:18;14.25;;;7.47;;
84814;SDS011;75050;53.190;5.562;2023-12-20T08:58:44;14.73;;;6.65;;
84814;SDS011;75050;53.190;5.562;2023-12-20T09:01:10;13.00;;;6.65;;
84814;SDS011;75050;53.190;5.562;2023-12-20T09:03:36;15.75;;;6.97;;
84814;SDS011;75050;53.190;5.562;2023-12-20T09:06:01;15.15;;;7.95;;
84814;SDS011;75050;53.190;5.562;2023-12-20T09:08:27;11.73;;;10.13;;
84814;SDS011;75050;53.190;5.562;2023-12-20T09:10:52;13.80;;;6.03;;
84814;SDS011;75050;53.190;5.562;2023-12-20T09:13:17;9.70;;;7.60;;
84814;SDS011;75050;53.190;5.562;2023-12-20T09:15:43;8.60;;;6.97;;
84814;SDS011;75050;53.190;5.562;2023-12-20T09:18:08;7.80;;;5.35;;
84814;SDS011;75050;53.190;5.562;2023-12-20T09:20:34;9.80;;;6.38;;
84814;SDS011;75050;53.190;5.562;2023-12-20T09:22:59;11.40;;;6.60;;
84814;SDS011;75050;53.190;5.562;2023-12-20T09:25:25;8.98;;;7.72;;
84814;SDS011;75050;53.190;5.562;2023-12-20T09:27:51;7.40;;;6.57;;
84814;SDS011;75050;53.190;5.562;2023-12-20T09:30:17;11.35;;;10.13;;
84814;SDS011;75050;53.190;5.562;2023-12-20T09:32:43;8.20;;;6.00;;
84814;SDS011;75050;53.190;5.562;2023-12-20T09:35:08;10.52;;;9.05;;
84814;SDS011;75050;53.190;5.562;2023-12-20T09:37:34;9.40;;;5.35;;
84814;SDS011;75050;53.190;5.562;2023-12-20T09:39:59;8.15;;;6.93;;
84814;SDS011;75050;53.190;5.562;2023-12-20T09:42:29;8.63;;;6.35;;
84814;SDS011;75050;53.190;5.562;2023-12-20T09:45:10;8.48;;;6.22;;
84814;SDS011;75050;53.190;5.562;2023-12-20T09:47:39;6.50;;;5.28;;
84814;SDS011;75050;53.190;5.562;2023-12-20T09:50:06;7.07;;;6.28;;
84814;SDS011;75050;53.190;5.562;2023-12-20T09:52:32;8.00;;;6.00;;
84814;SDS011;75050;53.190;5.562;2023-12-20T09:55:01;10.10;;;6.22;;
84814;SDS011;75050;53.190;5.562;2023-12-20T09:57:30;8.57;;;6.30;;
84814;SDS011;75050;53.190;5.562;2023-12-20T09:59:56;8.13;;;7.40;;
84814;SDS011;75050;53.190;5.562;2023-12-20T10:02:21;9.20;;;6.97;;
84814;SDS011;75050;53.190;5.562;2023-12-20T10:04:52;8.73;;;6.35;;
84814;SDS011;75050;53.190;5.562;2023-12-20T10:07:17;6.90;;;5.85;;
84814;SDS011;75050;53.190;5.562;2023-12-20T10:09:43;6.45;;;5.70;;
84814;SDS011;75050;53.190;5.562;2023-12-20T10:12:09;6.07;;;5.20;;
84814;SDS011;75050;53.190;5.562;2023-12-20T10:14:34;7.28;;;6.55;;
84814;SDS011;75050;53.190;5.562;2023-12-20T10:17:03;11.93;;;6.40;;
84814;SDS011;75050;53.190;5.562;2023-12-20T10:19:29;8.02;;;6.30;;
84814;SDS011;75050;53.190;5.562;2023-12-20T10:21:54;11.05;;;5.75;;
84814;SDS011;75050;53.190;5.562;2023-12-20T10:24:20;8.00;;;7.25;;
84814;SDS011;75050;53.190;5.562;2023-12-20T10:26:45;8.70;;;7.85;;
84814;SDS011;75050;53.190;5.562;2023-12-20T10:29:11;8.27;;;5.28;;
84814;SDS011;75050;53.190;5.562;2023-12-20T10:31:36;6.47;;;5.90;;
84814;SDS011;75050;53.190;5.562;2023-12-20T10:34:03;9.88;;;7.97;;
84814;SDS011;75050;53.190;5.562;2023-12-20T10:36:30;10.40;;;5.85;;
84814;SDS011;75050;53.190;5.562;2023-12-20T10:38:57;8.77;;;6.40;;
84814;SDS011;75050;53.190;5.562;2023-12-20T10:41:27;11.73;;;7.68;;
84814;SDS011;75050;53.190;5.562;2023-12-20T10:44:00;6.82;;;6.30;;
84814;SDS011;75050;53.190;5.562;2023-12-20T10:46:28;5.88;;;5.28;;
84814;SDS011;75050;53.190;5.562;2023-12-20T10:48:55;9.38;;;6.55;;
84814;SDS011;75050;53.190;5.562;2023-12-20T10:51:22;7.57;;;6.88;;
84814;SDS011;75050;53.190;5.562;2023-12-20T10:53:49;9.70;;;6.40;;
84814;SDS011;75050;53.190;5.562;2023-12-20T10:56:16;8.20;;;6.93;;
84814;SDS011;75050;53.190;5.562;2023-12-20T10:58:46;17.50;;;6.32;;
84814;SDS011;75050;53.190;5.562;2023-12-20T11:01:13;8.73;;;6.93;;
84814;SDS011;75050;53.190;5.562;2023-12-20T11:06:41;8.52;;;5.25;;
84814;SDS011;75050;53.190;5.562;2023-12-20T11:09:07;8.20;;;6.82;;
84814;SDS011;75050;53.190;5.562;2023-12-20T11:14:25;11.45;;;7.13;;
84814;SDS011;75050;53.190;5.562;2023-12-20T11:17:09;12.95;;;6.25;;
84814;SDS011;75050;53.190;5.562;2023-12-20T11:19:38;11.77;;;7.03;;
84814;SDS011;75050;53.190;5.562;2023-12-20T11:22:32;7.53;;;5.43;;
84814;SDS011;75050;53.190;5.562;2023-12-20T11:24:59;7.70;;;6.88;;
84814;SDS011;75050;53.190;5.562;2023-12-20T11:27:52;8.00;;;5.50;;
84814;SDS011;75050;53.190;5.562;2023-12-20T11:30:47;10.05;;;5.70;;
84814;SDS011;75050;53.190;5.562;2023-12-20T11:33:16;11.38;;;7.13;;
84814;SDS011;75050;53.190;5.562;2023-12-20T11:35:42;9.85;;;6.75;;
84814;SDS011;75050;53.190;5.562;2023-12-20T11:38:08;8.68;;;6.45;;
84814;SDS011;75050;53.190;5.562;2023-12-20T11:40:35;10.90;;;10.00;;
84814;SDS011;75050;53.190;5.562;2023-12-20T11:43:01;12.35;;;8.52;;
84814;SDS011;75050;53.190;5.562;2023-12-20T11:45:27;9.35;;;6.93;;
84814;SDS011;75050;53.190;5.562;2023-12-20T11:47:52;8.73;;;7.28;;
84814;SDS011;75050;53.190;5.562;2023-12-20T11:50:21;9.00;;;6.82;;
84814;SDS011;75050;53.190;5.562;2023-12-20T11:52:47;11.68;;;5.53;;
84814;SDS011;75050;53.190;5.562;2023-12-20T11:55:14;7.90;;;6.53;;
84814;SDS011;75050;53.190;5.562;2023-12-20T11:57:39;13.82;;;6.10;;
84814;SDS011;75050;53.190;5.562;2023-12-20T12:00:05;8.77;;;6.93;;
84814;SDS011;75050;53.190;5.562;2023-12-20T12:02:31;6.88;;;5.82;;
84814;SDS011;75050;53.190;5.562;2023-12-20T12:04:57;9.68;;;7.47;;
84814;SDS011;75050;53.190;5.562;2023-12-20T12:07:24;7.20;;;6.38;;
84814;SDS011;75050;53.190;5.562;2023-12-20T12:09:50;11.32;;;6.53;;
84814;SDS011;75050;53.190;5.562;2023-12-20T12:12:16;8.30;;;6.45;;
84814;SDS011;75050;53.190;5.562;2023-12-20T12:14:42;11.35;;;6.32;;
84814;SDS011;75050;53.190;5.562;2023-12-20T12:17:12;7.30;;;6.60;;
84814;SDS011;75050;53.190;5.562;2023-12-20T12:19:42;8.68;;;7.28;;
84814;SDS011;75050;53.190;5.562;2023-12-20T12:22:09;9.10;;;7.25;;
84814;SDS011;75050;53.190;5.562;2023-12-20T12:24:47;7.15;;;6.47;;
84814;SDS011;75050;53.190;5.562;2023-12-20T12:27:14;9.25;;;6.82;;
84814;SDS011;75050;53.190;5.562;2023-12-20T12:29:40;12.15;;;6.20;;
84814;SDS011;75050;53.190;5.562;2023-12-20T12:34:50;8.73;;;7.07;;
84814;SDS011;75050;53.190;5.562;2023-12-20T12:37:15;9.50;;;6.13;;
84814;SDS011;75050;53.190;5.562;2023-12-20T12:39:40;7.38;;;6.47;;
84814;SDS011;75050;53.190;5.562;2023-12-20T12:42:06;7.60;;;5.50;;
84814;SDS011;75050;53.190;5.562;2023-12-20T12:44:31;7.85;;;6.95;;
84814;SDS011;75050;53.190;5.562;2023-12-20T12:46:57;8.75;;;8.07;;
84814;SDS011;75050;53.190;5.562;2023-12-20T12:49:22;8.27;;;7.57;;
84814;SDS011;75050;53.190;5.562;2023-12-20T12:51:48;7.10;;;6.50;;
84814;SDS011;75050;53.190;5.562;2023-12-20T12:54:13;7.57;;;5.88;;
84814;SDS011;75050;53.190;5.562;2023-12-20T12:56:41;6.60;;;6.03;;
84814;SDS011;75050;53.190;5.562;2023-12-20T12:59:08;8.27;;;7.57;;
84814;SDS011;75050;53.190;5.562;2023-12-20T13:01:33;15.35;;;14.27;;
84814;SDS011;75050;53.190;5.562;2023-12-20T13:03:59;7.75;;;6.07;;
84814;SDS011;75050;53.190;5.562;2023-12-20T13:06:26;7.10;;;6.43;;
84814;SDS011;75050;53.190;5.562;2023-12-20T13:08:52;7.82;;;6.53;;
84814;SDS011;75050;53.190;5.562;2023-12-20T13:11:17;8.70;;;7.88;;
84814;SDS011;75050;53.190;5.562;2023-12-20T13:13:42;7.65;;;5.55;;
84814;SDS011;75050;53.190;5.562;2023-12-20T13:16:08;8.85;;;5.68;;
84814;SDS011;75050;53.190;5.562;2023-12-20T13:18:33;7.72;;;6.57;;
84814;SDS011;75050;53.190;5.562;2023-12-20T13:20:59;5.78;;;5.15;;
84814;SDS011;75050;53.190;5.562;2023-12-20T13:23:24;8.23;;;7.53;;
84814;SDS011;75050;53.190;5.562;2023-12-20T13:25:49;8.20;;;7.50;;
84814;SDS011;75050;53.190;5.562;2023-12-20T13:28:15;6.72;;;5.78;;
84814;SDS011;75050;53.190;5.562;2023-12-20T13:30:40;8.40;;;5.88;;
84814;SDS011;75050;53.190;5.562;2023-12-20T13:33:06;10.70;;;7.82;;
84814;SDS011;75050;53.190;5.562;2023-12-20T13:35:32;7.10;;;6.50;;
84814;SDS011;75050;53.190;5.562;2023-12-20T13:37:58;6.80;;;6.32;;
84814;SDS011;75050;53.190;5.562;2023-12-20T13:40:24;8.32;;;6.72;;
84814;SDS011;75050;53.190;5.562;2023-12-20T13:42:49;7.38;;;5.82;;
84814;SDS011;75050;53.190;5.562;2023-12-20T13:45:15;8.93;;;6.20;;
84814;SDS011;75050;53.190;5.562;2023-12-20T13:47:40;6.20;;;5.60;;
84814;SDS011;75050;53.190;5.562;2023-12-20T13:50:06;5.63;;;5.22;;
84814;SDS011;75050;53.190;5.562;2023-12-20T13:52:31;6.97;;;6.25;;
84814;SDS011;75050;53.190;5.562;2023-12-20T13:54:57;7.78;;;5.82;;
84814;SDS011;75050;53.190;5.562;2023-12-20T13:57:22;9.15;;;7.45;;
84814;SDS011;75050;53.190;5.562;2023-12-20T13:59:47;5.53;;;5.03;;
84814;SDS011;75050;53.190;5.562;2023-12-20T14:02:13;9.18;;;7.25;;
84814;SDS011;75050;53.190;5.562;2023-12-20T14:04:38;7.70;;;6.53;;
84814;SDS011;75050;53.190;5.562;2023-12-20T14:07:06;7.25;;;6.57;;
84814;SDS011;75050;53.190;5.562;2023-12-20T14:09:32;10.98;;;5.88;;
84814;SDS011;75050;53.190;5.562;2023-12-20T14:11:58;12.80;;;9.35;;
84814;SDS011;75050;53.190;5.562;2023-12-20T14:14:23;10.07;;;6.53;;
84814;SDS011;75050;53.190;5.562;2023-12-20T14:16:49;10.82;;;7.10;;
84814;SDS011;75050;53.190;5.562;2023-12-20T14:19:14;12.75;;;5.82;;
84814;SDS011;75050;53.190;5.562;2023-12-20T14:21:40;10.20;;;5.65;;
84814;SDS011;75050;53.190;5.562;2023-12-20T14:24:05;10.27;;;7.32;;
84814;SDS011;75050;53.190;5.562;2023-12-20T14:26:31;11.25;;;6.13;;
84814;SDS011;75050;53.190;5.562;2023-12-20T14:28:56;8.85;;;6.93;;
84814;SDS011;75050;53.190;5.562;2023-12-20T14:31:22;9.88;;;7.80;;
84814;SDS011;75050;53.190;5.562;2023-12-20T14:33:49;10.50;;;6.68;;
84814;SDS011;75050;53.190;5.562;2023-12-20T14:36:16;11.88;;;6.68;;
84814;SDS011;75050;53.190;5.562;2023-12-20T14:38:42;9.20;;;6.38;;
84814;SDS011;75050;53.190;5.562;2023-12-20T14:41:08;14.70;;;10.90;;